sensor_id;sensor_type;location;lat;lon;timestamp;pressure;altitude;pressure_sealevel;temperature;humidity
15272;BME280;7737;51.578;7.268;2022-10-28T00:01:11;101304.28;;;19.16;100.00
15272;BME280;7737;51.578;7.268;2022-10-28T00:03:40;101309.78;;;19.15;100.00
15272;BME280;7737;51.578;7.268;2022-10-28T00:06:09;101303.19;;;19.19;100.00
15272;BME280;7737;51.578;7.268;2022-10-28T00:08:36;101306.97;;;19.16;100.00
15272;BME280;7737;51.578;7.268;2022-10-28T00:11:05;101290.06;;;19.25;100.00
15272;BME280;7737;51.578;7.268;2022-10-28T00:13:33;101284.22;;;19.31;100.00
15272;BME280;7737;51.578;7.268;2022-10-28T00:16:08;101282.25;;;19.33;100.00
15272;BME280;7737;51.578;7.268;2022-10-28T00:18:35;101283.50;;;19.29;100.00
15272;BME280;7737;51.578;7.268;2022-10-28T00:21:04;101283.78;;;19.37;100.00
15272;BME280;7737;51.578;7.268;2022-10-28T00:23:30;101280.09;;;19.38;100.00
15272;BME280;7737;51.578;7.268;2022-10-28T00:26:03;101268.69;;;19.35;100.00
15272;BME280;7737;51.578;7.268;2022-10-28T00:28:30;101268.44;;;19.38;100.00
15272;BME280;7737;51.578;7.268;2022-10-28T00:31:05;101262.00;;;19.40;100.00
15272;BME280;7737;51.578;7.268;2022-10-28T00:33:32;101263.47;;;19.44;100.00
15272;BME280;7737;51.578;7.268;2022-10-28T00:36:14;101262.59;;;19.44;100.00
15272;BME280;7737;51.578;7.268;2022-10-28T00:38:42;101271.03;;;19.39;100.00
15272;BME280;7737;51.578;7.268;2022-10-28T00:41:11;101279.69;;;19.32;100.00
15272;BME280;7737;51.578;7.268;2022-10-28T00:43:39;101260.63;;;19.46;100.00
15272;BME280;7737;51.578;7.268;2022-10-28T00:46:15;101264.13;;;19.35;100.00
15272;BME280;7737;51.578;7.268;2022-10-28T00:48:46;101264.78;;;19.39;100.00
15272;BME280;7737;51.578;7.268;2022-10-28T00:51:15;101265.75;;;19.38;100.00
15272;BME280;7737;51.578;7.268;2022-10-28T00:53:43;101256.16;;;19.34;100.00
15272;BME280;7737;51.578;7.268;2022-10-28T00:56:12;101250.09;;;19.43;100.00
15272;BME280;7737;51.578;7.268;2022-10-28T00:58:40;101245.53;;;19.43;100.00
15272;BME280;7737;51.578;7.268;2022-10-28T01:01:08;101241.47;;;19.38;100.00
15272;BME280;7737;51.578;7.268;2022-10-28T01:03:35;101235.84;;;19.41;100.00
15272;BME280;7737;51.578;7.268;2022-10-28T01:06:02;101232.44;;;19.39;100.00
15272;BME280;7737;51.578;7.268;2022-10-28T01:08:30;101227.78;;;19.52;100.00
15272;BME280;7737;51.578;7.268;2022-10-28T01:11:11;101225.09;;;19.52;100.00
15272;BME280;7737;51.578;7.268;2022-10-28T01:13:47;101213.09;;;19.45;100.00
15272;BME280;7737;51.578;7.268;2022-10-28T01:16:28;101223.63;;;19.48;100.00
15272;BME280;7737;51.578;7.268;2022-10-28T01:19:20;101228.53;;;19.43;100.00
15272;BME280;7737;51.578;7.268;2022-10-28T01:22:04;101221.66;;;19.50;100.00
15272;BME280;7737;51.578;7.268;2022-10-28T01:24:44;101228.66;;;19.53;100.00
15272;BME280;7737;51.578;7.268;2022-10-28T01:27:36;101231.97;;;19.45;100.00
15272;BME280;7737;51.578;7.268;2022-10-28T01:30:10;101231.31;;;19.41;100.00
15272;BME280;7737;51.578;7.268;2022-10-28T01:32:49;101228.63;;;19.41;100.00
15272;BME280;7737;51.578;7.268;2022-10-28T01:35:21;101220.78;;;19.38;100.00
15272;BME280;7737;51.578;7.268;2022-10-28T01:37:57;101221.63;;;19.39;100.00
15272;BME280;7737;51.578;7.268;2022-10-28T01:40:31;101223.97;;;19.43;100.00
15272;BME280;7737;51.578;7.268;2022-10-28T01:43:06;101216.44;;;19.36;100.00
15272;BME280;7737;51.578;7.268;2022-10-28T01:45:40;101216.97;;;19.41;100.00
15272;BME280;7737;51.578;7.268;2022-10-28T01:48:14;101228.03;;;19.49;100.00
15272;BME280;7737;51.578;7.268;2022-10-28T01:50:45;101223.50;;;19.50;100.00
15272;BME280;7737;51.578;7.268;2022-10-28T01:53:19;101215.41;;;19.50;100.00
15272;BME280;7737;51.578;7.268;2022-10-28T01:55:49;101222.63;;;19.49;100.00
15272;BME280;7737;51.578;7.268;2022-10-28T01:58:20;101214.28;;;19.41;100.00
15272;BME280;7737;51.578;7.268;2022-10-28T02:00:48;101207.09;;;19.53;100.00
15272;BME280;7737;51.578;7.268;2022-10-28T02:03:17;101201.56;;;19.43;100.00
15272;BME280;7737;51.578;7.268;2022-10-28T02:05:44;101198.34;;;19.49;100.00
15272;BME280;7737;51.578;7.268;2022-10-28T02:08:25;101194.44;;;19.42;100.00
15272;BME280;7737;51.578;7.268;2022-10-28T02:11:06;101190.78;;;19.43;100.00
15272;BME280;7737;51.578;7.268;2022-10-28T02:13:43;101182.44;;;19.57;100.00
15272;BME280;7737;51.578;7.268;2022-10-28T02:16:18;101181.84;;;19.54;100.00
15272;BME280;7737;51.578;7.268;2022-10-28T02:18:58;101178.53;;;19.61;100.00
15272;BME280;7737;51.578;7.268;2022-10-28T02:21:33;101202.31;;;19.56;100.00
15272;BME280;7737;51.578;7.268;2022-10-28T02:24:08;101193.59;;;19.64;100.00
15272;BME280;7737;51.578;7.268;2022-10-28T02:26:41;101187.09;;;19.55;100.00
15272;BME280;7737;51.578;7.268;2022-10-28T02:29:15;101188.06;;;19.54;100.00
15272;BME280;7737;51.578;7.268;2022-10-28T02:31:44;101186.84;;;19.58;100.00
15272;BME280;7737;51.578;7.268;2022-10-28T02:34:16;101197.41;;;19.50;100.00
15272;BME280;7737;51.578;7.268;2022-10-28T02:36:48;101201.06;;;19.49;100.00
15272;BME280;7737;51.578;7.268;2022-10-28T02:39:17;101207.63;;;19.34;100.00
15272;BME280;7737;51.578;7.268;2022-10-28T02:41:50;101208.50;;;19.34;100.00
15272;BME280;7737;51.578;7.268;2022-10-28T02:44:22;101207.63;;;19.34;100.00
15272;BME280;7737;51.578;7.268;2022-10-28T02:46:49;101197.38;;;19.39;100.00
15272;BME280;7737;51.578;7.268;2022-10-28T02:49:18;101200.00;;;19.28;100.00
15272;BME280;7737;51.578;7.268;2022-10-28T02:51:48;101194.75;;;19.26;100.00
15272;BME280;7737;51.578;7.268;2022-10-28T02:54:20;101188.97;;;19.20;100.00
15272;BME280;7737;51.578;7.268;2022-10-28T02:56:52;101190.19;;;19.16;100.00
15272;BME280;7737;51.578;7.268;2022-10-28T02:59:23;101177.19;;;19.10;100.00
15272;BME280;7737;51.578;7.268;2022-10-28T03:01:50;101180.88;;;19.09;100.00
15272;BME280;7737;51.578;7.268;2022-10-28T03:04:18;101186.47;;;18.95;100.00
15272;BME280;7737;51.578;7.268;2022-10-28T03:06:45;101184.63;;;18.95;100.00
15272;BME280;7737;51.578;7.268;2022-10-28T03:09:11;101185.72;;;18.93;100.00
15272;BME280;7737;51.578;7.268;2022-10-28T03:11:38;101192.53;;;18.85;100.00
15272;BME280;7737;51.578;7.268;2022-10-28T03:14:04;101189.81;;;18.74;100.00
15272;BME280;7737;51.578;7.268;2022-10-28T03:16:31;101200.03;;;18.58;100.00
15272;BME280;7737;51.578;7.268;2022-10-28T03:18:57;101196.34;;;18.59;100.00
15272;BME280;7737;51.578;7.268;2022-10-28T03:21:25;101188.06;;;18.62;100.00
15272;BME280;7737;51.578;7.268;2022-10-28T03:23:52;101184.16;;;18.66;100.00
15272;BME280;7737;51.578;7.268;2022-10-28T03:26:18;101199.28;;;18.56;100.00
15272;BME280;7737;51.578;7.268;2022-10-28T03:28:45;101203.19;;;18.52;100.00
15272;BME280;7737;51.578;7.268;2022-10-28T03:31:12;101207.84;;;18.50;100.00
15272;BME280;7737;51.578;7.268;2022-10-28T03:33:39;101199.75;;;18.50;100.00
15272;BME280;7737;51.578;7.268;2022-10-28T03:36:06;101199.16;;;18.34;100.00
15272;BME280;7737;51.578;7.268;2022-10-28T03:38:34;101206.50;;;18.19;100.00
15272;BME280;7737;51.578;7.268;2022-10-28T03:41:00;101202.06;;;17.95;100.00
15272;BME280;7737;51.578;7.268;2022-10-28T03:43:27;101202.94;;;17.83;100.00
15272;BME280;7737;51.578;7.268;2022-10-28T03:45:53;101195.19;;;17.78;100.00
15272;BME280;7737;51.578;7.268;2022-10-28T03:48:20;101196.59;;;17.84;100.00
15272;BME280;7737;51.578;7.268;2022-10-28T03:50:46;101194.13;;;17.55;100.00
15272;BME280;7737;51.578;7.268;2022-10-28T03:53:13;101194.91;;;17.57;100.00
15272;BME280;7737;51.578;7.268;2022-10-28T03:55:41;101201.88;;;17.73;100.00
15272;BME280;7737;51.578;7.268;2022-10-28T03:58:07;101204.69;;;17.58;100.00
15272;BME280;7737;51.578;7.268;2022-10-28T04:00:33;101198.84;;;17.77;100.00
15272;BME280;7737;51.578;7.268;2022-10-28T04:03:00;101201.00;;;17.72;100.00
15272;BME280;7737;51.578;7.268;2022-10-28T04:05:26;101197.88;;;17.91;100.00
15272;BME280;7737;51.578;7.268;2022-10-28T04:07:53;101192.78;;;17.99;100.00
15272;BME280;7737;51.578;7.268;2022-10-28T04:10:19;101190.91;;;17.76;100.00
15272;BME280;7737;51.578;7.268;2022-10-28T04:12:47;101200.16;;;17.34;100.00
15272;BME280;7737;51.578;7.268;2022-10-28T04:15:14;101197.66;;;17.43;100.00
15272;BME280;7737;51.578;7.268;2022-10-28T04:17:40;101200.59;;;17.66;100.00
15272;BME280;7737;51.578;7.268;2022-10-28T04:20:07;101193.03;;;17.45;100.00
15272;BME280;7737;51.578;7.268;2022-10-28T04:22:34;101194.78;;;17.46;100.00
15272;BME280;7737;51.578;7.268;2022-10-28T04:25:00;101194.25;;;17.54;100.00
15272;BME280;7737;51.578;7.268;2022-10-28T04:27:27;101189.84;;;17.66;100.00
15272;BME280;7737;51.578;7.268;2022-10-28T04:29:55;101187.91;;;17.68;100.00
15272;BME280;7737;51.578;7.268;2022-10-28T04:32:21;101193.50;;;17.64;100.00
15272;BME280;7737;51.578;7.268;2022-10-28T04:34:48;101193.28;;;17.68;100.00
15272;BME280;7737;51.578;7.268;2022-10-28T04:37:14;101196.06;;;17.79;100.00
15272;BME280;7737;51.578;7.268;2022-10-28T04:39:41;101190.03;;;17.75;100.00
15272;BME280;7737;51.578;7.268;2022-10-28T04:42:07;101191.75;;;17.63;100.00
15272;BME280;7737;51.578;7.268;2022-10-28T04:44:34;101189.19;;;17.75;100.00
15272;BME280;7737;51.578;7.268;2022-10-28T04:47:02;101187.25;;;17.64;100.00
15272;BME280;7737;51.578;7.268;2022-10-28T04:49:28;101188.75;;;17.55;100.00
15272;BME280;7737;51.578;7.268;2022-10-28T04:51:55;101205.31;;;17.49;100.00
15272;BME280;7737;51.578;7.268;2022-10-28T04:54:21;101203.28;;;17.53;100.00
15272;BME280;7737;51.578;7.268;2022-10-28T04:56:47;101195.22;;;17.66;100.00
15272;BME280;7737;51.578;7.268;2022-10-28T04:59:14;101200.06;;;17.60;100.00
15272;BME280;7737;51.578;7.268;2022-10-28T05:01:41;101208.34;;;17.57;100.00
15272;BME280;7737;51.578;7.268;2022-10-28T05:04:08;101204.44;;;17.49;100.00
15272;BME280;7737;51.578;7.268;2022-10-28T05:06:35;101212.97;;;17.55;100.00
15272;BME280;7737;51.578;7.268;2022-10-28T05:09:02;101216.50;;;17.56;100.00
15272;BME280;7737;51.578;7.268;2022-10-28T05:11:28;101218.25;;;17.57;100.00
15272;BME280;7737;51.578;7.268;2022-10-28T05:13:55;101213.53;;;17.60;100.00
15272;BME280;7737;51.578;7.268;2022-10-28T05:16:21;101211.78;;;17.59;100.00
15272;BME280;7737;51.578;7.268;2022-10-28T05:18:48;101219.38;;;17.40;100.00
15272;BME280;7737;51.578;7.268;2022-10-28T05:21:16;101216.44;;;17.57;100.00
15272;BME280;7737;51.578;7.268;2022-10-28T05:23:42;101207.28;;;17.60;100.00
15272;BME280;7737;51.578;7.268;2022-10-28T05:26:09;101207.47;;;17.44;100.00
15272;BME280;7737;51.578;7.268;2022-10-28T05:28:35;101211.78;;;17.59;100.00
15272;BME280;7737;51.578;7.268;2022-10-28T05:31:02;101205.97;;;17.53;100.00
15272;BME280;7737;51.578;7.268;2022-10-28T05:33:28;101204.25;;;17.52;100.00
15272;BME280;7737;51.578;7.268;2022-10-28T05:35:57;101209.63;;;17.64;100.00
15272;BME280;7737;51.578;7.268;2022-10-28T05:38:25;101196.50;;;17.73;100.00
15272;BME280;7737;51.578;7.268;2022-10-28T05:40:52;101204.34;;;17.76;100.00
15272;BME280;7737;51.578;7.268;2022-10-28T05:43:19;101200.34;;;17.69;100.00
15272;BME280;7737;51.578;7.268;2022-10-28T05:45:51;101205.31;;;17.75;100.00
15272;BME280;7737;51.578;7.268;2022-10-28T05:48:17;101205.22;;;17.63;100.00
15272;BME280;7737;51.578;7.268;2022-10-28T05:50:43;101211.38;;;17.66;100.00
15272;BME280;7737;51.578;7.268;2022-10-28T05:53:10;101213.50;;;17.73;100.00
15272;BME280;7737;51.578;7.268;2022-10-28T05:55:38;101213.19;;;17.65;100.00
15272;BME280;7737;51.578;7.268;2022-10-28T05:58:04;101214.13;;;17.77;100.00
15272;BME280;7737;51.578;7.268;2022-10-28T06:00:31;101204.25;;;17.64;100.00
15272;BME280;7737;51.578;7.268;2022-10-28T06:03:01;101205.97;;;17.78;100.00
15272;BME280;7737;51.578;7.268;2022-10-28T06:05:31;101206.94;;;17.64;100.00
15272;BME280;7737;51.578;7.268;2022-10-28T06:07:57;101205.63;;;17.83;100.00
15272;BME280;7737;51.578;7.268;2022-10-28T06:10:24;101216.19;;;17.73;100.00
15272;BME280;7737;51.578;7.268;2022-10-28T06:12:53;101209.09;;;17.72;100.00
15272;BME280;7737;51.578;7.268;2022-10-28T06:15:20;101214.59;;;17.71;100.00
15272;BME280;7737;51.578;7.268;2022-10-28T06:17:47;101216.84;;;17.64;100.00
15272;BME280;7737;51.578;7.268;2022-10-28T06:20:14;101208.13;;;17.73;100.00
15272;BME280;7737;51.578;7.268;2022-10-28T06:22:46;101223.41;;;17.60;100.00
15272;BME280;7737;51.578;7.268;2022-10-28T06:25:12;101209.69;;;17.50;100.00
15272;BME280;7737;51.578;7.268;2022-10-28T06:27:39;101217.16;;;17.59;100.00
15272;BME280;7737;51.578;7.268;2022-10-28T06:30:08;101222.19;;;17.51;100.00
15272;BME280;7737;51.578;7.268;2022-10-28T06:32:35;101222.09;;;17.53;100.00
15272;BME280;7737;51.578;7.268;2022-10-28T06:35:02;101228.56;;;17.63;100.00
15272;BME280;7737;51.578;7.268;2022-10-28T06:37:28;101225.34;;;17.71;100.00
15272;BME280;7737;51.578;7.268;2022-10-28T06:39:55;101229.41;;;17.63;100.00
15272;BME280;7737;51.578;7.268;2022-10-28T06:42:23;101227.03;;;17.46;100.00
15272;BME280;7737;51.578;7.268;2022-10-28T06:44:49;101236.06;;;17.58;100.00
15272;BME280;7737;51.578;7.268;2022-10-28T06:47:17;101238.88;;;17.56;100.00
15272;BME280;7737;51.578;7.268;2022-10-28T06:49:44;101233.91;;;17.50;100.00
15272;BME280;7737;51.578;7.268;2022-10-28T06:52:10;101237.16;;;17.55;100.00
15272;BME280;7737;51.578;7.268;2022-10-28T06:54:37;101237.06;;;17.57;100.00
15272;BME280;7737;51.578;7.268;2022-10-28T06:57:03;101236.78;;;17.47;100.00
15272;BME280;7737;51.578;7.268;2022-10-28T06:59:30;101240.16;;;17.63;100.00
15272;BME280;7737;51.578;7.268;2022-10-28T07:01:57;101236.09;;;17.71;100.00
15272;BME280;7737;51.578;7.268;2022-10-28T07:04:24;101231.25;;;17.76;100.00
15272;BME280;7737;51.578;7.268;2022-10-28T07:06:53;101233.50;;;17.82;100.00
15272;BME280;7737;51.578;7.268;2022-10-28T07:09:20;101237.69;;;17.86;100.00
15272;BME280;7737;51.578;7.268;2022-10-28T07:11:47;101242.09;;;17.87;100.00
15272;BME280;7737;51.578;7.268;2022-10-28T07:14:14;101252.41;;;17.93;100.00
15272;BME280;7737;51.578;7.268;2022-10-28T07:16:43;101248.88;;;17.92;100.00
15272;BME280;7737;51.578;7.268;2022-10-28T07:19:10;101256.28;;;18.01;100.00
15272;BME280;7737;51.578;7.268;2022-10-28T07:21:37;101264.00;;;18.06;100.00
15272;BME280;7737;51.578;7.268;2022-10-28T07:24:04;101262.53;;;18.02;100.00
15272;BME280;7737;51.578;7.268;2022-10-28T07:26:31;101255.50;;;18.12;100.00
15272;BME280;7737;51.578;7.268;2022-10-28T07:28:57;101246.25;;;18.16;100.00
15272;BME280;7737;51.578;7.268;2022-10-28T07:31:24;101254.06;;;18.19;100.00
15272;BME280;7737;51.578;7.268;2022-10-28T07:33:52;101258.81;;;18.28;100.00
15272;BME280;7737;51.578;7.268;2022-10-28T07:36:19;101249.06;;;18.38;100.00
15272;BME280;7737;51.578;7.268;2022-10-28T07:38:49;101249.00;;;18.40;100.00
15272;BME280;7737;51.578;7.268;2022-10-28T07:41:17;101252.06;;;18.46;100.00
15272;BME280;7737;51.578;7.268;2022-10-28T07:43:44;101254.28;;;18.65;100.00
15272;BME280;7737;51.578;7.268;2022-10-28T07:46:10;101256.09;;;18.77;100.00
15272;BME280;7737;51.578;7.268;2022-10-28T07:48:37;101255.69;;;18.70;100.00
15272;BME280;7737;51.578;7.268;2022-10-28T07:51:05;101255.00;;;18.79;100.00
15272;BME280;7737;51.578;7.268;2022-10-28T07:53:32;101254.75;;;18.82;100.00
15272;BME280;7737;51.578;7.268;2022-10-28T07:56:03;101245.47;;;18.87;100.00
15272;BME280;7737;51.578;7.268;2022-10-28T07:58:30;101248.44;;;18.95;100.00
15272;BME280;7737;51.578;7.268;2022-10-28T08:01:01;101245.03;;;19.04;100.00
15272;BME280;7737;51.578;7.268;2022-10-28T08:03:28;101241.59;;;19.02;100.00
15272;BME280;7737;51.578;7.268;2022-10-28T08:05:58;101248.00;;;19.01;100.00
15272;BME280;7737;51.578;7.268;2022-10-28T08:08:25;101240.19;;;19.20;100.00
15272;BME280;7737;51.578;7.268;2022-10-28T08:10:51;101236.72;;;19.07;100.00
15272;BME280;7737;51.578;7.268;2022-10-28T08:13:19;101243.19;;;19.04;100.00
15272;BME280;7737;51.578;7.268;2022-10-28T08:15:50;101229.91;;;19.14;100.00
15272;BME280;7737;51.578;7.268;2022-10-28T08:18:17;101243.19;;;19.04;100.00
15272;BME280;7737;51.578;7.268;2022-10-28T08:20:43;101244.47;;;19.11;100.00
15272;BME280;7737;51.578;7.268;2022-10-28T08:23:10;101238.81;;;19.03;100.00
15272;BME280;7737;51.578;7.268;2022-10-28T08:25:36;101248.00;;;19.01;100.00
15272;BME280;7737;51.578;7.268;2022-10-28T08:28:03;101237.72;;;19.17;100.00
15272;BME280;7737;51.578;7.268;2022-10-28T08:30:31;101245.81;;;19.17;100.00
15272;BME280;7737;51.578;7.268;2022-10-28T08:32:57;101246.56;;;19.19;100.00
15272;BME280;7737;51.578;7.268;2022-10-28T08:35:24;101245.47;;;19.21;100.00
15272;BME280;7737;51.578;7.268;2022-10-28T08:37:50;101243.66;;;19.33;100.00
15272;BME280;7737;51.578;7.268;2022-10-28T08:40:18;101241.69;;;19.24;100.00
15272;BME280;7737;51.578;7.268;2022-10-28T08:42:48;101239.72;;;19.26;100.00
15272;BME280;7737;51.578;7.268;2022-10-28T08:45:24;101240.41;;;19.40;100.00
15272;BME280;7737;51.578;7.268;2022-10-28T08:48:06;101237.13;;;19.48;100.00
15272;BME280;7737;51.578;7.268;2022-10-28T08:50:41;101225.00;;;19.54;100.00
15272;BME280;7737;51.578;7.268;2022-10-28T08:53:14;101227.41;;;19.57;100.00
15272;BME280;7737;51.578;7.268;2022-10-28T08:55:43;101219.22;;;19.80;100.00
15272;BME280;7737;51.578;7.268;2022-10-28T08:58:13;101219.00;;;19.72;100.00
15272;BME280;7737;51.578;7.268;2022-10-28T09:00:45;101209.66;;;19.76;100.00
15272;BME280;7737;51.578;7.268;2022-10-28T09:03:18;101208.44;;;19.91;100.00
15272;BME280;7737;51.578;7.268;2022-10-28T09:05:48;101198.09;;;20.08;100.00
15272;BME280;7737;51.578;7.268;2022-10-28T09:08:20;101192.69;;;20.19;100.00
15272;BME280;7737;51.578;7.268;2022-10-28T09:11:19;101191.69;;;20.42;100.00
15272;BME280;7737;51.578;7.268;2022-10-28T09:14:08;101194.38;;;20.42;100.00
15272;BME280;7737;51.578;7.268;2022-10-28T09:16:43;101187.53;;;20.38;100.00
15272;BME280;7737;51.578;7.268;2022-10-28T09:19:21;101197.00;;;20.32;100.00
15272;BME280;7737;51.578;7.268;2022-10-28T09:21:52;101189.69;;;20.44;100.00
15272;BME280;7737;51.578;7.268;2022-10-28T09:24:26;101185.31;;;20.43;100.00
15272;BME280;7737;51.578;7.268;2022-10-28T09:26:59;101183.28;;;20.56;100.00
15272;BME280;7737;51.578;7.268;2022-10-28T09:29:38;101182.13;;;20.70;100.00
15272;BME280;7737;51.578;7.268;2022-10-28T09:32:13;101184.66;;;20.82;100.00
15272;BME280;7737;51.578;7.268;2022-10-28T09:34:46;101177.16;;;20.86;100.00
15272;BME280;7737;51.578;7.268;2022-10-28T09:37:18;101177.91;;;21.08;100.00
15272;BME280;7737;51.578;7.268;2022-10-28T09:39:47;101170.50;;;21.10;100.00
15272;BME280;7737;51.578;7.268;2022-10-28T09:42:19;101177.41;;;21.03;100.00
15272;BME280;7737;51.578;7.268;2022-10-28T09:44:52;101171.97;;;21.35;100.00
15272;BME280;7737;51.578;7.268;2022-10-28T09:47:23;101174.00;;;21.43;100.00
15272;BME280;7737;51.578;7.268;2022-10-28T09:49:56;101155.50;;;21.48;100.00
15272;BME280;7737;51.578;7.268;2022-10-28T09:52:27;101155.56;;;21.57;100.00
15272;BME280;7737;51.578;7.268;2022-10-28T09:54:56;101155.94;;;21.83;100.00
15272;BME280;7737;51.578;7.268;2022-10-28T09:57:29;101154.09;;;21.83;100.00
15272;BME280;7737;51.578;7.268;2022-10-28T09:59:56;101144.94;;;22.05;100.00
15272;BME280;7737;51.578;7.268;2022-10-28T10:02:27;101144.50;;;22.10;100.00
15272;BME280;7737;51.578;7.268;2022-10-28T10:04:57;101152.38;;;22.13;100.00
15272;BME280;7737;51.578;7.268;2022-10-28T10:07:29;101152.31;;;22.03;100.00
15272;BME280;7737;51.578;7.268;2022-10-28T10:09:58;101144.13;;;22.24;100.00
15272;BME280;7737;51.578;7.268;2022-10-28T10:12:27;101150.97;;;22.37;100.00
15272;BME280;7737;51.578;7.268;2022-10-28T10:14:55;101144.41;;;22.30;100.00
15272;BME280;7737;51.578;7.268;2022-10-28T10:17:29;101145.97;;;22.42;100.00
15272;BME280;7737;51.578;7.268;2022-10-28T10:20:00;101145.53;;;22.18;100.00
15272;BME280;7737;51.578;7.268;2022-10-28T10:22:29;101154.97;;;22.24;100.00
15272;BME280;7737;51.578;7.268;2022-10-28T10:24:56;101155.22;;;22.21;100.00
15272;BME280;7737;51.578;7.268;2022-10-28T10:27:24;101153.25;;;22.52;100.00
15272;BME280;7737;51.578;7.268;2022-10-28T10:29:52;101133.03;;;22.56;100.00
15272;BME280;7737;51.578;7.268;2022-10-28T10:32:24;101130.47;;;22.73;100.00
15272;BME280;7737;51.578;7.268;2022-10-28T10:34:59;101133.28;;;22.91;100.00
15272;BME280;7737;51.578;7.268;2022-10-28T10:37:28;101131.59;;;22.90;100.00
15272;BME280;7737;51.578;7.268;2022-10-28T10:40:00;101134.72;;;22.95;100.00
15272;BME280;7737;51.578;7.268;2022-10-28T10:42:28;101127.44;;;23.05;100.00
15272;BME280;7737;51.578;7.268;2022-10-28T10:44:59;101126.72;;;23.03;100.00
15272;BME280;7737;51.578;7.268;2022-10-28T10:47:26;101113.41;;;23.10;100.00
15272;BME280;7737;51.578;7.268;2022-10-28T10:50:16;101112.50;;;23.28;100.00
15272;BME280;7737;51.578;7.268;2022-10-28T10:52:47;101112.91;;;23.33;100.00
15272;BME280;7737;51.578;7.268;2022-10-28T10:55:21;101095.72;;;23.52;100.00
15272;BME280;7737;51.578;7.268;2022-10-28T10:57:48;101104.56;;;23.63;100.00
15272;BME280;7737;51.578;7.268;2022-10-28T11:00:16;101086.53;;;23.62;100.00
15272;BME280;7737;51.578;7.268;2022-10-28T11:02:46;101089.31;;;23.53;100.00
15272;BME280;7737;51.578;7.268;2022-10-28T11:05:19;101103.47;;;23.47;100.00
15272;BME280;7737;51.578;7.268;2022-10-28T11:07:48;101086.63;;;23.43;100.00
15272;BME280;7737;51.578;7.268;2022-10-28T11:10:21;101081.53;;;23.40;100.00
15272;BME280;7737;51.578;7.268;2022-10-28T11:12:53;101090.09;;;23.26;100.00
15272;BME280;7737;51.578;7.268;2022-10-28T11:15:22;101088.06;;;23.47;100.00
15272;BME280;7737;51.578;7.268;2022-10-28T11:17:55;101093.72;;;23.54;100.00
15272;BME280;7737;51.578;7.268;2022-10-28T11:20:25;101063.53;;;23.67;100.00
15272;BME280;7737;51.578;7.268;2022-10-28T11:23:06;101065.91;;;23.70;100.00
15272;BME280;7737;51.578;7.268;2022-10-28T11:25:38;101055.06;;;23.70;100.00
15272;BME280;7737;51.578;7.268;2022-10-28T11:28:21;101055.63;;;23.73;100.00
15272;BME280;7737;51.578;7.268;2022-10-28T11:31:00;101050.94;;;23.66;100.00
15272;BME280;7737;51.578;7.268;2022-10-28T11:33:35;101054.81;;;23.63;100.00
15272;BME280;7737;51.578;7.268;2022-10-28T11:36:14;101061.50;;;23.69;100.00
15272;BME280;7737;51.578;7.268;2022-10-28T11:38:57;101043.38;;;23.87;100.00
15272;BME280;7737;51.578;7.268;2022-10-28T11:41:32;101039.75;;;23.96;100.00
15272;BME280;7737;51.578;7.268;2022-10-28T11:44:06;101036.63;;;23.91;100.00
15272;BME280;7737;51.578;7.268;2022-10-28T11:46:39;101045.72;;;23.99;100.00
15272;BME280;7737;51.578;7.268;2022-10-28T11:49:32;101050.84;;;24.02;100.00
15272;BME280;7737;51.578;7.268;2022-10-28T11:52:15;101049.97;;;24.02;100.00
15272;BME280;7737;51.578;7.268;2022-10-28T11:54:57;101029.38;;;24.09;100.00
15272;BME280;7737;51.578;7.268;2022-10-28T11:57:38;101035.78;;;24.08;100.00
15272;BME280;7737;51.578;7.268;2022-10-28T12:00:26;101037.72;;;23.98;100.00
15272;BME280;7737;51.578;7.268;2022-10-28T12:03:08;101045.28;;;24.04;100.00
15272;BME280;7737;51.578;7.268;2022-10-28T12:05:43;101028.63;;;24.07;100.00
15272;BME280;7737;51.578;7.268;2022-10-28T12:08:28;101014.16;;;24.16;100.00
15272;BME280;7737;51.578;7.268;2022-10-28T12:11:10;101028.69;;;24.25;100.00
15272;BME280;7737;51.578;7.268;2022-10-28T12:13:42;101019.13;;;24.38;100.00
15272;BME280;7737;51.578;7.268;2022-10-28T12:16:14;101018.78;;;24.41;100.00
15272;BME280;7737;51.578;7.268;2022-10-28T12:18:50;100998.13;;;24.48;99.85
15272;BME280;7737;51.578;7.268;2022-10-28T12:21:24;100982.13;;;24.45;97.10
15272;BME280;7737;51.578;7.268;2022-10-28T12:23:56;100985.97;;;24.60;95.95
15272;BME280;7737;51.578;7.268;2022-10-28T12:26:33;100985.03;;;24.69;95.40
15272;BME280;7737;51.578;7.268;2022-10-28T12:29:02;100975.16;;;24.68;95.10
15272;BME280;7737;51.578;7.268;2022-10-28T12:31:33;100971.59;;;24.94;94.39
15272;BME280;7737;51.578;7.268;2022-10-28T12:34:04;100993.47;;;24.84;96.71
15272;BME280;7737;51.578;7.268;2022-10-28T12:36:37;100987.63;;;25.05;96.79
15272;BME280;7737;51.578;7.268;2022-10-28T12:39:13;100965.22;;;25.11;94.79
15272;BME280;7737;51.578;7.268;2022-10-28T12:41:49;100953.81;;;25.15;93.68
15272;BME280;7737;51.578;7.268;2022-10-28T12:44:20;100955.41;;;25.26;93.43
15272;BME280;7737;51.578;7.268;2022-10-28T12:46:55;100972.66;;;25.01;96.02
15272;BME280;7737;51.578;7.268;2022-10-28T12:49:31;100965.88;;;25.13;95.76
15272;BME280;7737;51.578;7.268;2022-10-28T12:52:06;100957.25;;;25.17;94.26
15272;BME280;7737;51.578;7.268;2022-10-28T12:54:41;100938.03;;;25.19;91.78
15272;BME280;7737;51.578;7.268;2022-10-28T12:57:13;100935.34;;;25.27;90.18
15272;BME280;7737;51.578;7.268;2022-10-28T12:59:44;100944.13;;;25.13;91.73
15272;BME280;7737;51.578;7.268;2022-10-28T13:02:16;100919.97;;;25.18;89.05
15272;BME280;7737;51.578;7.268;2022-10-28T13:04:46;100923.91;;;25.23;88.30
15272;BME280;7737;51.578;7.268;2022-10-28T13:07:42;100957.25;;;25.17;93.53